sensor_id;sensor_type;location;lat;lon;timestamp;P1;durP1;ratioP1;P2;durP2;ratioP2
62479;SDS011;48526;48.846;2.322;2022-08-30T00:00:13;5.00;;;3.50;;
62479;SDS011;48526;48.846;2.322;2022-08-30T00:02:59;4.25;;;3.25;;
62479;SDS011;48526;48.846;2.322;2022-08-30T00:05:25;5.25;;;5.00;;
62479;SDS011;48526;48.846;2.322;2022-08-30T00:07:51;5.00;;;4.00;;
62479;SDS011;48526;48.846;2.322;2022-08-30T00:10:17;3.75;;;3.75;;
62479;SDS011;48526;48.846;2.322;2022-08-30T00:12:42;3.75;;;3.75;;
62479;SDS011;48526;48.846;2.322;2022-08-30T00:15:09;4.00;;;4.00;;
62479;SDS011;48526;48.846;2.322;2022-08-30T00:17:35;5.50;;;5.25;;
62479;SDS011;48526;48.846;2.322;2022-08-30T00:20:02;5.00;;;4.25;;
62479;SDS011;48526;48.846;2.322;2022-08-30T00:22:29;4.50;;;3.75;;
62479;SDS011;48526;48.846;2.322;2022-08-30T00:24:57;4.50;;;4.50;;
62479;SDS011;48526;48.846;2.322;2022-08-30T00:27:24;7.00;;;6.00;;
62479;SDS011;48526;48.846;2.322;2022-08-30T00:29:50;7.50;;;4.00;;
62479;SDS011;48526;48.846;2.322;2022-08-30T00:32:16;7.25;;;5.25;;
62479;SDS011;48526;48.846;2.322;2022-08-30T00:34:45;3.75;;;3.50;;
62479;SDS011;48526;48.846;2.322;2022-08-30T00:37:13;6.75;;;5.50;;
62479;SDS011;48526;48.846;2.322;2022-08-30T00:39:39;4.75;;;4.75;;
62479;SDS011;48526;48.846;2.322;2022-08-30T00:42:05;3.00;;;3.00;;
62479;SDS011;48526;48.846;2.322;2022-08-30T00:44:31;4.75;;;4.75;;
62479;SDS011;48526;48.846;2.322;2022-08-30T00:46:56;6.75;;;5.25;;
62479;SDS011;48526;48.846;2.322;2022-08-30T00:49:22;3.75;;;3.75;;
62479;SDS011;48526;48.846;2.322;2022-08-30T00:51:47;4.00;;;4.00;;
62479;SDS011;48526;48.846;2.322;2022-08-30T00:54:13;8.75;;;5.75;;
62479;SDS011;48526;48.846;2.322;2022-08-30T00:56:39;3.75;;;3.75;;
62479;SDS011;48526;48.846;2.322;2022-08-30T00:59:05;4.00;;;4.00;;
62479;SDS011;48526;48.846;2.322;2022-08-30T01:01:31;6.75;;;6.75;;
62479;SDS011;48526;48.846;2.322;2022-08-30T01:03:57;7.00;;;4.50;;
62479;SDS011;48526;48.846;2.322;2022-08-30T01:06:23;6.50;;;4.25;;
62479;SDS011;48526;48.846;2.322;2022-08-30T01:08:50;5.50;;;4.00;;
62479;SDS011;48526;48.846;2.322;2022-08-30T01:11:17;7.25;;;4.00;;
62479;SDS011;48526;48.846;2.322;2022-08-30T01:13:45;5.00;;;4.50;;
62479;SDS011;48526;48.846;2.322;2022-08-30T01:16:11;4.50;;;4.25;;
62479;SDS011;48526;48.846;2.322;2022-08-30T01:18:37;5.00;;;4.00;;
62479;SDS011;48526;48.846;2.322;2022-08-30T01:23:31;6.00;;;5.00;;
62479;SDS011;48526;48.846;2.322;2022-08-30T01:25:59;6.25;;;4.25;;
62479;SDS011;48526;48.846;2.322;2022-08-30T01:28:27;6.25;;;6.00;;
62479;SDS011;48526;48.846;2.322;2022-08-30T01:30:54;4.50;;;4.50;;
62479;SDS011;48526;48.846;2.322;2022-08-30T01:33:20;3.25;;;3.25;;
62479;SDS011;48526;48.846;2.322;2022-08-30T01:35:48;6.50;;;5.75;;
62479;SDS011;48526;48.846;2.322;2022-08-30T01:38:17;6.50;;;4.25;;
62479;SDS011;48526;48.846;2.322;2022-08-30T01:40:46;5.75;;;3.75;;
62479;SDS011;48526;48.846;2.322;2022-08-30T01:43:12;5.00;;;3.00;;
62479;SDS011;48526;48.846;2.322;2022-08-30T01:45:38;5.75;;;4.75;;
62479;SDS011;48526;48.846;2.322;2022-08-30T01:48:04;4.75;;;4.00;;
62479;SDS011;48526;48.846;2.322;2022-08-30T01:50:29;4.50;;;4.50;;
62479;SDS011;48526;48.846;2.322;2022-08-30T01:52:55;7.00;;;5.75;;
62479;SDS011;48526;48.846;2.322;2022-08-30T01:55:20;4.00;;;4.00;;
62479;SDS011;48526;48.846;2.322;2022-08-30T01:57:46;6.25;;;4.50;;
62479;SDS011;48526;48.846;2.322;2022-08-30T02:00:11;6.50;;;5.00;;
62479;SDS011;48526;48.846;2.322;2022-08-30T02:02:37;4.50;;;4.50;;
62479;SDS011;48526;48.846;2.322;2022-08-30T02:05:03;5.25;;;4.25;;
62479;SDS011;48526;48.846;2.322;2022-08-30T02:07:30;3.75;;;3.50;;
62479;SDS011;48526;48.846;2.322;2022-08-30T02:09:55;6.50;;;4.50;;
62479;SDS011;48526;48.846;2.322;2022-08-30T02:12:20;4.75;;;4.75;;
62479;SDS011;48526;48.846;2.322;2022-08-30T02:14:46;4.25;;;4.00;;
62479;SDS011;48526;48.846;2.322;2022-08-30T02:17:12;5.00;;;4.00;;
62479;SDS011;48526;48.846;2.322;2022-08-30T02:19:38;6.00;;;5.00;;
62479;SDS011;48526;48.846;2.322;2022-08-30T02:22:05;6.50;;;4.50;;
62479;SDS011;48526;48.846;2.322;2022-08-30T02:24:30;6.75;;;6.50;;
62479;SDS011;48526;48.846;2.322;2022-08-30T02:26:56;7.25;;;4.75;;
62479;SDS011;48526;48.846;2.322;2022-08-30T02:29:22;7.75;;;4.25;;
62479;SDS011;48526;48.846;2.322;2022-08-30T02:31:48;5.50;;;5.00;;
62479;SDS011;48526;48.846;2.322;2022-08-30T02:34:16;4.25;;;4.25;;
62479;SDS011;48526;48.846;2.322;2022-08-30T02:36:41;7.25;;;6.75;;
62479;SDS011;48526;48.846;2.322;2022-08-30T02:39:07;6.50;;;6.25;;
62479;SDS011;48526;48.846;2.322;2022-08-30T02:41:34;4.50;;;3.25;;
62479;SDS011;48526;48.846;2.322;2022-08-30T02:43:59;6.50;;;4.00;;
62479;SDS011;48526;48.846;2.322;2022-08-30T02:46:25;7.75;;;4.75;;
62479;SDS011;48526;48.846;2.322;2022-08-30T02:48:51;8.25;;;4.00;;
62479;SDS011;48526;48.846;2.322;2022-08-30T02:51:16;5.50;;;5.00;;
62479;SDS011;48526;48.846;2.322;2022-08-30T02:53:42;7.00;;;5.75;;
62479;SDS011;48526;48.846;2.322;2022-08-30T02:56:08;6.75;;;4.75;;
62479;SDS011;48526;48.846;2.322;2022-08-30T02:58:35;3.50;;;3.50;;
62479;SDS011;48526;48.846;2.322;2022-08-30T03:01:01;4.00;;;4.00;;
62479;SDS011;48526;48.846;2.322;2022-08-30T03:03:26;8.50;;;5.75;;
62479;SDS011;48526;48.846;2.322;2022-08-30T03:05:51;6.75;;;5.25;;
62479;SDS011;48526;48.846;2.322;2022-08-30T03:08:17;4.50;;;4.50;;
62479;SDS011;48526;48.846;2.322;2022-08-30T03:10:42;5.75;;;5.00;;
62479;SDS011;48526;48.846;2.322;2022-08-30T03:13:08;6.25;;;5.75;;
62479;SDS011;48526;48.846;2.322;2022-08-30T03:15:33;6.75;;;6.25;;
62479;SDS011;48526;48.846;2.322;2022-08-30T03:18:00;8.00;;;6.75;;
62479;SDS011;48526;48.846;2.322;2022-08-30T03:20:25;8.50;;;6.00;;
62479;SDS011;48526;48.846;2.322;2022-08-30T03:22:51;7.00;;;5.25;;
62479;SDS011;48526;48.846;2.322;2022-08-30T03:25:17;6.75;;;6.75;;
62479;SDS011;48526;48.846;2.322;2022-08-30T03:27:44;6.50;;;6.50;;
62479;SDS011;48526;48.846;2.322;2022-08-30T03:30:10;6.00;;;5.25;;
62479;SDS011;48526;48.846;2.322;2022-08-30T03:32:36;9.00;;;5.50;;
62479;SDS011;48526;48.846;2.322;2022-08-30T03:35:01;8.00;;;6.00;;
62479;SDS011;48526;48.846;2.322;2022-08-30T03:37:27;6.75;;;6.75;;
62479;SDS011;48526;48.846;2.322;2022-08-30T03:39:53;7.00;;;6.50;;
62479;SDS011;48526;48.846;2.322;2022-08-30T03:42:18;7.50;;;6.75;;
62479;SDS011;48526;48.846;2.322;2022-08-30T03:44:44;9.50;;;7.25;;
62479;SDS011;48526;48.846;2.322;2022-08-30T03:47:09;8.00;;;7.25;;
62479;SDS011;48526;48.846;2.322;2022-08-30T03:49:35;12.00;;;10.00;;
62479;SDS011;48526;48.846;2.322;2022-08-30T03:52:00;8.75;;;6.00;;
62479;SDS011;48526;48.846;2.322;2022-08-30T03:54:26;6.25;;;5.75;;
62479;SDS011;48526;48.846;2.322;2022-08-30T03:56:51;8.00;;;6.75;;
62479;SDS011;48526;48.846;2.322;2022-08-30T03:59:16;8.75;;;6.00;;
62479;SDS011;48526;48.846;2.322;2022-08-30T04:01:42;7.25;;;7.25;;
62479;SDS011;48526;48.846;2.322;2022-08-30T04:04:09;6.50;;;6.50;;
62479;SDS011;48526;48.846;2.322;2022-08-30T04:06:35;8.00;;;7.25;;
62479;SDS011;48526;48.846;2.322;2022-08-30T04:09:00;10.75;;;7.75;;
62479;SDS011;48526;48.846;2.322;2022-08-30T04:11:26;7.25;;;7.25;;
62479;SDS011;48526;48.846;2.322;2022-08-30T04:13:51;7.00;;;7.00;;
62479;SDS011;48526;48.846;2.322;2022-08-30T04:16:18;6.50;;;6.50;;
62479;SDS011;48526;48.846;2.322;2022-08-30T04:18:43;7.25;;;6.75;;
62479;SDS011;48526;48.846;2.322;2022-08-30T04:21:09;7.00;;;7.00;;
62479;SDS011;48526;48.846;2.322;2022-08-30T04:23:34;8.50;;;7.00;;
62479;SDS011;48526;48.846;2.322;2022-08-30T04:26:00;9.75;;;8.00;;
62479;SDS011;48526;48.846;2.322;2022-08-30T04:28:26;8.75;;;6.50;;
62479;SDS011;48526;48.846;2.322;2022-08-30T04:30:52;6.00;;;6.00;;
62479;SDS011;48526;48.846;2.322;2022-08-30T04:33:17;7.00;;;7.00;;
62479;SDS011;48526;48.846;2.322;2022-08-30T04:35:43;6.00;;;6.00;;
62479;SDS011;48526;48.846;2.322;2022-08-30T04:38:10;6.50;;;6.50;;
62479;SDS011;48526;48.846;2.322;2022-08-30T04:40:37;5.50;;;5.50;;
62479;SDS011;48526;48.846;2.322;2022-08-30T04:43:02;7.00;;;6.75;;
62479;SDS011;48526;48.846;2.322;2022-08-30T04:45:28;7.00;;;6.00;;
62479;SDS011;48526;48.846;2.322;2022-08-30T04:47:53;9.00;;;5.50;;
62479;SDS011;48526;48.846;2.322;2022-08-30T04:50:19;7.75;;;7.00;;
62479;SDS011;48526;48.846;2.322;2022-08-30T04:52:45;5.75;;;5.75;;
62479;SDS011;48526;48.846;2.322;2022-08-30T04:55:11;9.00;;;6.50;;
62479;SDS011;48526;48.846;2.322;2022-08-30T04:57:37;6.75;;;5.75;;
62479;SDS011;48526;48.846;2.322;2022-08-30T05:00:05;7.00;;;7.00;;
62479;SDS011;48526;48.846;2.322;2022-08-30T05:02:35;6.75;;;6.75;;
62479;SDS011;48526;48.846;2.322;2022-08-30T05:05:00;5.50;;;5.50;;
62479;SDS011;48526;48.846;2.322;2022-08-30T05:07:44;10.75;;;8.50;;
62479;SDS011;48526;48.846;2.322;2022-08-30T05:10:10;4.75;;;4.75;;
62479;SDS011;48526;48.846;2.322;2022-08-30T05:12:35;6.00;;;6.00;;
62479;SDS011;48526;48.846;2.322;2022-08-30T05:15:01;6.50;;;6.00;;
62479;SDS011;48526;48.846;2.322;2022-08-30T05:17:26;6.75;;;6.00;;
62479;SDS011;48526;48.846;2.322;2022-08-30T05:19:52;6.75;;;6.50;;
62479;SDS011;48526;48.846;2.322;2022-08-30T05:22:17;8.75;;;7.00;;
62479;SDS011;48526;48.846;2.322;2022-08-30T05:24:43;7.50;;;6.50;;
62479;SDS011;48526;48.846;2.322;2022-08-30T05:27:08;6.00;;;6.00;;
62479;SDS011;48526;48.846;2.322;2022-08-30T05:29:34;8.75;;;6.75;;
62479;SDS011;48526;48.846;2.322;2022-08-30T05:31:59;5.00;;;3.25;;
62479;SDS011;48526;48.846;2.322;2022-08-30T05:34:25;7.75;;;6.75;;
62479;SDS011;48526;48.846;2.322;2022-08-30T05:36:50;8.25;;;6.75;;
62479;SDS011;48526;48.846;2.322;2022-08-30T05:39:17;7.50;;;7.00;;
62479;SDS011;48526;48.846;2.322;2022-08-30T05:41:42;6.00;;;4.75;;
62479;SDS011;48526;48.846;2.322;2022-08-30T05:44:08;9.75;;;8.25;;
62479;SDS011;48526;48.846;2.322;2022-08-30T05:46:34;8.00;;;7.25;;
62479;SDS011;48526;48.846;2.322;2022-08-30T05:49:01;7.75;;;6.75;;
62479;SDS011;48526;48.846;2.322;2022-08-30T05:51:29;10.25;;;8.75;;
62479;SDS011;48526;48.846;2.322;2022-08-30T05:53:55;6.00;;;5.75;;
62479;SDS011;48526;48.846;2.322;2022-08-30T05:56:40;6.75;;;6.00;;
62479;SDS011;48526;48.846;2.322;2022-08-30T05:59:08;2.75;;;2.75;;
62479;SDS011;48526;48.846;2.322;2022-08-30T06:01:35;8.50;;;8.50;;
62479;SDS011;48526;48.846;2.322;2022-08-30T06:04:04;7.25;;;7.25;;
62479;SDS011;48526;48.846;2.322;2022-08-30T06:06:31;6.50;;;6.25;;
62479;SDS011;48526;48.846;2.322;2022-08-30T06:08:58;9.25;;;8.00;;
62479;SDS011;48526;48.846;2.322;2022-08-30T06:11:24;7.50;;;7.25;;
62479;SDS011;48526;48.846;2.322;2022-08-30T06:13:50;9.75;;;7.00;;
62479;SDS011;48526;48.846;2.322;2022-08-30T06:16:17;7.25;;;6.50;;
62479;SDS011;48526;48.846;2.322;2022-08-30T06:18:45;6.50;;;6.00;;
62479;SDS011;48526;48.846;2.322;2022-08-30T06:21:23;8.25;;;6.50;;
62479;SDS011;48526;48.846;2.322;2022-08-30T06:23:50;12.00;;;11.25;;
62479;SDS011;48526;48.846;2.322;2022-08-30T06:26:16;7.25;;;6.75;;
62479;SDS011;48526;48.846;2.322;2022-08-30T06:28:42;8.50;;;8.50;;
62479;SDS011;48526;48.846;2.322;2022-08-30T06:31:08;8.00;;;6.75;;
62479;SDS011;48526;48.846;2.322;2022-08-30T06:33:35;9.00;;;6.75;;
62479;SDS011;48526;48.846;2.322;2022-08-30T06:36:02;7.00;;;6.00;;
62479;SDS011;48526;48.846;2.322;2022-08-30T06:38:32;6.00;;;6.00;;
62479;SDS011;48526;48.846;2.322;2022-08-30T06:40:57;10.00;;;6.00;;
62479;SDS011;48526;48.846;2.322;2022-08-30T06:43:23;10.00;;;7.50;;
62479;SDS011;48526;48.846;2.322;2022-08-30T06:45:48;8.00;;;6.75;;
62479;SDS011;48526;48.846;2.322;2022-08-30T06:48:14;10.50;;;8.00;;
62479;SDS011;48526;48.846;2.322;2022-08-30T06:50:39;8.50;;;8.00;;
62479;SDS011;48526;48.846;2.322;2022-08-30T06:53:06;9.75;;;8.50;;
62479;SDS011;48526;48.846;2.322;2022-08-30T06:55:32;9.75;;;8.25;;
62479;SDS011;48526;48.846;2.322;2022-08-30T06:58:00;10.00;;;10.00;;
62479;SDS011;48526;48.846;2.322;2022-08-30T07:00:26;12.25;;;10.75;;
62479;SDS011;48526;48.846;2.322;2022-08-30T07:02:52;11.00;;;10.00;;
62479;SDS011;48526;48.846;2.322;2022-08-30T07:05:18;9.50;;;9.50;;
62479;SDS011;48526;48.846;2.322;2022-08-30T07:07:47;11.50;;;8.50;;
62479;SDS011;48526;48.846;2.322;2022-08-30T07:10:12;6.50;;;6.00;;
62479;SDS011;48526;48.846;2.322;2022-08-30T07:12:39;14.00;;;9.00;;
62479;SDS011;48526;48.846;2.322;2022-08-30T07:15:05;11.75;;;7.50;;
62479;SDS011;48526;48.846;2.322;2022-08-30T07:17:32;8.50;;;6.25;;
62479;SDS011;48526;48.846;2.322;2022-08-30T07:20:17;9.50;;;8.00;;
62479;SDS011;48526;48.846;2.322;2022-08-30T07:22:43;9.00;;;8.50;;
62479;SDS011;48526;48.846;2.322;2022-08-30T07:25:10;9.00;;;7.00;;
62479;SDS011;48526;48.846;2.322;2022-08-30T07:27:35;9.25;;;8.25;;
62479;SDS011;48526;48.846;2.322;2022-08-30T07:30:01;9.50;;;6.00;;
62479;SDS011;48526;48.846;2.322;2022-08-30T07:32:27;13.00;;;7.25;;
62479;SDS011;48526;48.846;2.322;2022-08-30T07:34:53;10.50;;;9.50;;
62479;SDS011;48526;48.846;2.322;2022-08-30T07:37:18;15.50;;;14.50;;
62479;SDS011;48526;48.846;2.322;2022-08-30T07:39:44;8.75;;;7.75;;
62479;SDS011;48526;48.846;2.322;2022-08-30T07:42:09;13.00;;;11.00;;
62479;SDS011;48526;48.846;2.322;2022-08-30T07:44:35;10.00;;;10.00;;
62479;SDS011;48526;48.846;2.322;2022-08-30T07:47:00;12.50;;;9.75;;
62479;SDS011;48526;48.846;2.322;2022-08-30T07:49:26;11.50;;;9.75;;
62479;SDS011;48526;48.846;2.322;2022-08-30T07:51:51;9.50;;;9.25;;
62479;SDS011;48526;48.846;2.322;2022-08-30T07:54:17;16.00;;;9.75;;
62479;SDS011;48526;48.846;2.322;2022-08-30T07:56:42;12.75;;;11.50;;
62479;SDS011;48526;48.846;2.322;2022-08-30T07:59:07;11.75;;;10.50;;
62479;SDS011;48526;48.846;2.322;2022-08-30T08:01:33;8.25;;;7.25;;
62479;SDS011;48526;48.846;2.322;2022-08-30T08:03:58;10.50;;;10.50;;
62479;SDS011;48526;48.846;2.322;2022-08-30T08:06:24;9.50;;;8.75;;
62479;SDS011;48526;48.846;2.322;2022-08-30T08:08:49;10.00;;;9.00;;
62479;SDS011;48526;48.846;2.322;2022-08-30T08:11:22;11.25;;;9.00;;
62479;SDS011;48526;48.846;2.322;2022-08-30T08:13:49;10.75;;;9.50;;
62479;SDS011;48526;48.846;2.322;2022-08-30T08:16:16;10.50;;;9.00;;
62479;SDS011;48526;48.846;2.322;2022-08-30T08:18:42;9.25;;;9.25;;
62479;SDS011;48526;48.846;2.322;2022-08-30T08:21:07;13.00;;;10.00;;
62479;SDS011;48526;48.846;2.322;2022-08-30T08:23:32;12.25;;;10.25;;
62479;SDS011;48526;48.846;2.322;2022-08-30T08:25:58;14.25;;;12.50;;
62479;SDS011;48526;48.846;2.322;2022-08-30T08:28:23;9.00;;;7.00;;
62479;SDS011;48526;48.846;2.322;2022-08-30T08:30:49;11.00;;;9.00;;
62479;SDS011;48526;48.846;2.322;2022-08-30T08:33:15;9.50;;;9.50;;
62479;SDS011;48526;48.846;2.322;2022-08-30T08:35:41;11.25;;;10.75;;
62479;SDS011;48526;48.846;2.322;2022-08-30T08:38:07;13.50;;;11.00;;
62479;SDS011;48526;48.846;2.322;2022-08-30T08:43:25;13.25;;;11.50;;
62479;SDS011;48526;48.846;2.322;2022-08-30T08:51:13;13.25;;;9.25;;
62479;SDS011;48526;48.846;2.322;2022-08-30T08:56:45;11.75;;;11.00;;
62479;SDS011;48526;48.846;2.322;2022-08-30T08:59:11;16.00;;;11.00;;
62479;SDS011;48526;48.846;2.322;2022-08-30T09:01:39;11.50;;;9.25;;
62479;SDS011;48526;48.846;2.322;2022-08-30T09:04:07;9.50;;;9.50;;
62479;SDS011;48526;48.846;2.322;2022-08-30T09:06:45;8.00;;;8.00;;
62479;SDS011;48526;48.846;2.322;2022-08-30T09:09:13;13.75;;;12.00;;
62479;SDS011;48526;48.846;2.322;2022-08-30T09:11:41;12.25;;;9.00;;
62479;SDS011;48526;48.846;2.322;2022-08-30T09:14:18;11.75;;;11.00;;
62479;SDS011;48526;48.846;2.322;2022-08-30T09:21:59;13.75;;;11.75;;
62479;SDS011;48526;48.846;2.322;2022-08-30T09:24:35;13.00;;;11.25;;
62479;SDS011;48526;48.846;2.322;2022-08-30T09:27:15;12.00;;;10.25;;
62479;SDS011;48526;48.846;2.322;2022-08-30T09:29:48;9.00;;;9.00;;
62479;SDS011;48526;48.846;2.322;2022-08-30T09:32:25;12.00;;;10.75;;
62479;SDS011;48526;48.846;2.322;2022-08-30T09:34:52;12.75;;;11.25;;
62479;SDS011;48526;48.846;2.322;2022-08-30T09:37:32;12.75;;;8.50;;
62479;SDS011;48526;48.846;2.322;2022-08-30T09:40:00;11.00;;;10.00;;
62479;SDS011;48526;48.846;2.322;2022-08-30T09:42:27;13.50;;;12.25;;
62479;SDS011;48526;48.846;2.322;2022-08-30T09:44:54;13.75;;;11.25;;
62479;SDS011;48526;48.846;2.322;2022-08-30T09:47:40;13.25;;;13.00;;
62479;SDS011;48526;48.846;2.322;2022-08-30T10:00:28;14.25;;;11.00;;
62479;SDS011;48526;48.846;2.322;2022-08-30T10:08:57;13.00;;;12.50;;
62479;SDS011;48526;48.846;2.322;2022-08-30T10:14:37;12.50;;;10.50;;
62479;SDS011;48526;48.846;2.322;2022-08-30T10:17:26;13.25;;;12.75;;
62479;SDS011;48526;48.846;2.322;2022-08-30T10:22:41;13.75;;;12.00;;
62479;SDS011;48526;48.846;2.322;2022-08-30T10:28:10;14.75;;;12.50;;
62479;SDS011;48526;48.846;2.322;2022-08-30T10:30:41;7.25;;;6.00;;
62479;SDS011;48526;48.846;2.322;2022-08-30T10:33:14;12.25;;;11.25;;
62479;SDS011;48526;48.846;2.322;2022-08-30T10:35:59;18.50;;;15.25;;
62479;SDS011;48526;48.846;2.322;2022-08-30T10:38:28;16.00;;;12.75;;
62479;SDS011;48526;48.846;2.322;2022-08-30T10:41:19;10.25;;;10.25;;
62479;SDS011;48526;48.846;2.322;2022-08-30T10:43:48;13.25;;;13.25;;
62479;SDS011;48526;48.846;2.322;2022-08-30T10:46:41;12.50;;;10.00;;
62479;SDS011;48526;48.846;2.322;2022-08-30T10:49:23;10.50;;;10.50;;
62479;SDS011;48526;48.846;2.322;2022-08-30T10:52:04;11.25;;;10.25;;
62479;SDS011;48526;48.846;2.322;2022-08-30T10:56:58;18.50;;;15.50;;
62479;SDS011;48526;48.846;2.322;2022-08-30T10:59:24;14.50;;;13.25;;
62479;SDS011;48526;48.846;2.322;2022-08-30T11:10:14;15.00;;;13.25;;
62479;SDS011;48526;48.846;2.322;2022-08-30T11:13:07;12.25;;;11.25;;
62479;SDS011;48526;48.846;2.322;2022-08-30T11:15:36;11.00;;;10.75;;
62479;SDS011;48526;48.846;2.322;2022-08-30T11:21:18;26.00;;;24.75;;
62479;SDS011;48526;48.846;2.322;2022-08-30T11:29:09;16.25;;;14.50;;
62479;SDS011;48526;48.846;2.322;2022-08-30T11:32:18;17.25;;;15.50;;
62479;SDS011;48526;48.846;2.322;2022-08-30T11:40:07;10.00;;;10.00;;
62479;SDS011;48526;48.846;2.322;2022-08-30T11:42:39;19.25;;;18.75;;
62479;SDS011;48526;48.846;2.322;2022-08-30T11:47:48;15.75;;;13.75;;
62479;SDS011;48526;48.846;2.322;2022-08-30T11:50:21;15.00;;;13.00;;
62479;SDS011;48526;48.846;2.322;2022-08-30T12:10:50;11.75;;;11.00;;
62479;SDS011;48526;48.846;2.322;2022-08-30T12:18:43;12.00;;;11.25;;
62479;SDS011;48526;48.846;2.322;2022-08-30T12:23:51;14.75;;;11.25;;
62479;SDS011;48526;48.846;2.322;2022-08-30T12:28:48;13.00;;;11.67;;
62479;SDS011;48526;48.846;2.322;2022-08-30T12:31:22;12.75;;;12.00;;
62479;SDS011;48526;48.846;2.322;2022-08-30T12:33:52;11.50;;;10.00;;
62479;SDS011;48526;48.846;2.322;2022-08-30T12:42:14;12.25;;;11.25;;
62479;SDS011;48526;48.846;2.322;2022-08-30T12:44:42;15.75;;;13.25;;
62479;SDS011;48526;48.846;2.322;2022-08-30T12:47:07;15.00;;;13.75;;
62479;SDS011;48526;48.846;2.322;2022-08-30T12:49:36;13.00;;;11.25;;
62479;SDS011;48526;48.846;2.322;2022-08-30T12:54:55;11.75;;;11.75;;
62479;SDS011;48526;48.846;2.322;2022-08-30T12:57:34;11.75;;;11.75;;
62479;SDS011;48526;48.846;2.322;2022-08-30T13:00:03;10.50;;;9.00;;
62479;SDS011;48526;48.846;2.322;2022-08-30T13:02:42;10.25;;;10.25;;
62479;SDS011;48526;48.846;2.322;2022-08-30T13:13:52;12.00;;;10.00;;
62479;SDS011;48526;48.846;2.322;2022-08-30T13:18:42;11.25;;;11.25;;
62479;SDS011;48526;48.846;2.322;2022-08-30T13:21:09;11.00;;;9.50;;
62479;SDS011;48526;48.846;2.322;2022-08-30T13:23:44;13.25;;;12.25;;
62479;SDS011;48526;48.846;2.322;2022-08-30T13:26:10;9.50;;;7.50;;
62479;SDS011;48526;48.846;2.322;2022-08-30T13:28:49;10.25;;;9.25;;
62479;SDS011;48526;48.846;2.322;2022-08-30T13:31:17;10.75;;;10.75;;
62479;SDS011;48526;48.846;2.322;2022-08-30T13:33:43;12.50;;;11.75;;
62479;SDS011;48526;48.846;2.322;2022-08-30T13:36:14;14.25;;;12.00;;
62479;SDS011;48526;48.846;2.322;2022-08-30T13:38:40;14.25;;;11.75;;
62479;SDS011;48526;48.846;2.322;2022-08-30T13:41:06;12.25;;;11.25;;
62479;SDS011;48526;48.846;2.322;2022-08-30T13:43:31;10.00;;;10.00;;
62479;SDS011;48526;48.846;2.322;2022-08-30T13:45:57;14.00;;;11.75;;
62479;SDS011;48526;48.846;2.322;2022-08-30T13:48:22;12.33;;;11.00;;
62479;SDS011;48526;48.846;2.322;2022-08-30T13:50:48;13.75;;;11.25;;
62479;SDS011;48526;48.846;2.322;2022-08-30T13:53:13;11.25;;;11.00;;
62479;SDS011;48526;48.846;2.322;2022-08-30T13:55:39;11.00;;;10.50;;
62479;SDS011;48526;48.846;2.322;2022-08-30T13:58:06;14.00;;;13.75;;
62479;SDS011;48526;48.846;2.322;2022-08-30T14:00:31;11.50;;;10.75;;
62479;SDS011;48526;48.846;2.322;2022-08-30T14:02:58;9.75;;;8.50;;
62479;SDS011;48526;48.846;2.322;2022-08-30T14:05:28;10.75;;;10.75;;
62479;SDS011;48526;48.846;2.322;2022-08-30T14:07:58;12.00;;;12.00;;
62479;SDS011;48526;48.846;2.322;2022-08-30T14:10:25;14.75;;;12.00;;
62479;SDS011;48526;48.846;2.322;2022-08-30T14:12:52;12.25;;;11.25;;
62479;SDS011;48526;48.846;2.322;2022-08-30T14:15:17;12.50;;;10.25;;
62479;SDS011;48526;48.846;2.322;2022-08-30T14:17:43;11.75;;;10.50;;
62479;SDS011;48526;48.846;2.322;2022-08-30T14:20:08;10.50;;;9.75;;
62479;SDS011;48526;48.846;2.322;2022-08-30T14:22:34;10.00;;;10.00;;
62479;SDS011;48526;48.846;2.322;2022-08-30T14:24:59;9.75;;;9.50;;
62479;SDS011;48526;48.846;2.322;2022-08-30T14:27:28;10.50;;;10.00;;
62479;SDS011;48526;48.846;2.322;2022-08-30T14:29:53;8.00;;;7.50;;
62479;SDS011;48526;48.846;2.322;2022-08-30T14:32:19;11.50;;;10.25;;
62479;SDS011;48526;48.846;2.322;2022-08-30T14:34:44;10.75;;;9.25;;
62479;SDS011;48526;48.846;2.322;2022-08-30T14:37:09;8.75;;;8.75;;
62479;SDS011;48526;48.846;2.322;2022-08-30T14:39:35;10.75;;;9.25;;
62479;SDS011;48526;48.846;2.322;2022-08-30T14:42:00;10.50;;;9.50;;
62479;SDS011;48526;48.846;2.322;2022-08-30T14:44:26;10.75;;;10.25;;
62479;SDS011;48526;48.846;2.322;2022-08-30T14:46:51;8.75;;;8.00;;
62479;SDS011;48526;48.846;2.322;2022-08-30T14:49:17;10.00;;;9.25;;
62479;SDS011;48526;48.846;2.322;2022-08-30T14:51:43;6.00;;;6.00;;
62479;SDS011;48526;48.846;2.322;2022-08-30T14:54:15;8.25;;;8.00;;
62479;SDS011;48526;48.846;2.322;2022-08-30T14:56:42;9.75;;;8.00;;
62479;SDS011;48526;48.846;2.322;2022-08-30T14:59:08;8.00;;;6.75;;
62479;SDS011;48526;48.846;2.322;2022-08-30T15:01:34;7.75;;;7.50;;
62479;SDS011;48526;48.846;2.322;2022-08-30T15:03:59;10.50;;;7.50;;
62479;SDS011;48526;48.846;2.322;2022-08-30T15:06:26;8.50;;;6.75;;
62479;SDS011;48526;48.846;2.322;2022-08-30T15:08:51;9.25;;;9.25;;
62479;SDS011;48526;48.846;2.322;2022-08-30T15:11:18;10.25;;;8.00;;
62479;SDS011;48526;48.846;2.322;2022-08-30T15:13:45;7.00;;;7.00;;
62479;SDS011;48526;48.846;2.322;2022-08-30T15:16:15;9.00;;;8.75;;
62479;SDS011;48526;48.846;2.322;2022-08-30T15:18:43;6.00;;;6.00;;
62479;SDS011;48526;48.846;2.322;2022-08-30T15:21:09;9.50;;;8.25;;
62479;SDS011;48526;48.846;2.322;2022-08-30T15:23:35;11.00;;;7.75;;
62479;SDS011;48526;48.846;2.322;2022-08-30T15:26:01;9.00;;;9.00;;
62479;SDS011;48526;48.846;2.322;2022-08-30T15:28:27;12.25;;;9.75;;
62479;SDS011;48526;48.846;2.322;2022-08-30T15:30:52;12.00;;;9.75;;
62479;SDS011;48526;48.846;2.322;2022-08-30T15:33:19;10.25;;;9.25;;
62479;SDS011;48526;48.846;2.322;2022-08-30T15:35:45;8.75;;;8.25;;
62479;SDS011;48526;48.846;2.322;2022-08-30T15:38:10;8.00;;;8.00;;
62479;SDS011;48526;48.846;2.322;2022-08-30T15:40:36;10.25;;;8.75;;
62479;SDS011;48526;48.846;2.322;2022-08-30T15:43:02;8.00;;;8.00;;
62479;SDS011;48526;48.846;2.322;2022-08-30T15:45:28;8.25;;;8.25;;
62479;SDS011;48526;48.846;2.322;2022-08-30T15:47:53;8.00;;;8.00;;
62479;SDS011;48526;48.846;2.322;2022-08-30T15:50:19;10.00;;;8.25;;
62479;SDS011;48526;48.846;2.322;2022-08-30T15:52:44;10.00;;;10.00;;
62479;SDS011;48526;48.846;2.322;2022-08-30T15:55:09;9.75;;;9.00;;
62479;SDS011;48526;48.846;2.322;2022-08-30T15:57:35;9.00;;;9.00;;
62479;SDS011;48526;48.846;2.322;2022-08-30T16:00:00;9.00;;;8.00;;
62479;SDS011;48526;48.846;2.322;2022-08-30T16:02:26;7.75;;;7.75;;
62479;SDS011;48526;48.846;2.322;2022-08-30T16:04:51;12.00;;;8.25;;
62479;SDS011;48526;48.846;2.322;2022-08-30T16:07:16;10.00;;;8.75;;
62479;SDS011;48526;48.846;2.322;2022-08-30T16:09:42;7.00;;;6.00;;
62479;SDS011;48526;48.846;2.322;2022-08-30T16:12:07;10.25;;;9.25;;
62479;SDS011;48526;48.846;2.322;2022-08-30T16:14:33;10.00;;;8.25;;
62479;SDS011;48526;48.846;2.322;2022-08-30T16:16:58;5.50;;;4.50;;
62479;SDS011;48526;48.846;2.322;2022-08-30T16:19:24;10.50;;;8.00;;
62479;SDS011;48526;48.846;2.322;2022-08-30T16:21:50;8.50;;;7.50;;
62479;SDS011;48526;48.846;2.322;2022-08-30T16:24:15;9.00;;;7.50;;
62479;SDS011;48526;48.846;2.322;2022-08-30T16:26:44;8.25;;;8.00;;
62479;SDS011;48526;48.846;2.322;2022-08-30T16:29:10;8.00;;;7.25;;
62479;SDS011;48526;48.846;2.322;2022-08-30T16:31:37;9.00;;;8.25;;
62479;SDS011;48526;48.846;2.322;2022-08-30T16:34:02;7.75;;;6.75;;
62479;SDS011;48526;48.846;2.322;2022-08-30T16:36:28;8.25;;;7.00;;
62479;SDS011;48526;48.846;2.322;2022-08-30T16:38:54;11.25;;;10.25;;